Time;durP1;ratioP1;P1;durP2;ratioP2;P2;SDS_P1;SDS_P2;PMS_P1;PMS_P2;Temp;Humidity;BMP_temperature;BMP_pressure;BME280_temperature;BME280_humidity;BME280_pressure;Samples;Min_cycle;Max_cycle;Signal;HPM_P1;HPM_P2
2022/08/20 00:00:22;;;;;;;11.80;5.93;;;;;;;23.99;64.21;100018.28;4987967;28;20042;-74
2022/08/20 00:03:00;;;;;;;13.00;6.82;;;;;;;24.19;63.43;100028.63;5003232;28;20085;-75
2022/08/20 00:05:32;;;;;;;8.38;6.00;;;;;;;24.87;62.05;100112.91;5005299;28;20453;-74
2022/08/20 00:07:59;;;;;;;;;;;;;;;25.07;61.81;100125.00;5005242;28;20678;-74
2022/08/20 00:10:27;;;;;;;17.52;5.50;;;;;;;24.95;62.27;100132.03;4995160;28;20047;-74
2022/08/20 00:12:54;;;;;;;10.15;6.35;;;;;;;24.09;62.62;100014.09;4984211;28;20058;-71
2022/08/20 00:15:25;;;;;;;11.70;5.80;;;;;;;24.81;62.18;100122.19;5001142;28;20053;-73
2022/08/20 00:17:51;;;;;;;16.95;6.65;;;;;;;24.56;62.28;100066.56;5002827;28;20029;-72
2022/08/20 00:20:22;;;;;;;18.08;6.55;;;;;;;24.87;63.00;100133.50;4981840;28;20771;-72
2022/08/20 00:22:48;;;;;;;10.35;6.45;;;;;;;24.93;62.15;100117.00;4977621;28;20138;-72
2022/08/20 00:25:14;;;;;;;12.93;5.90;;;;;;;24.27;62.15;100012.03;5004229;28;20065;-73
2022/08/20 00:27:40;;;;;;;13.02;7.13;;;;;;;24.92;62.47;100115.28;5002119;28;20045;-72
2022/08/20 00:30:10;;;;;;;14.93;6.47;;;;;;;24.40;62.70;100069.31;4970271;28;20034;-73
2022/08/20 00:32:48;;;;;;;11.90;7.88;;;;;;;24.92;61.72;100105.41;4999583;28;20061;-72
2022/08/20 00:35:16;;;;;;;11.25;6.18;;;;;;;24.87;61.77;100112.91;5002503;28;20049;-72
2022/08/20 00:37:42;;;;;;;13.07;6.68;;;;;;;24.31;61.47;99994.81;5000731;28;20076;-72
2022/08/20 00:40:24;;;;;;;9.35;5.82;;;;;;;24.89;61.27;100116.34;4983652;28;20525;-72
2022/08/20 00:42:52;;;;;;;;;;;;;;;24.91;61.53;100119.81;4987001;28;20069;-71
2022/08/20 00:45:19;;;;;;;9.35;6.85;;;;;;;24.63;62.54;100110.81;5004594;28;19961;-72
2022/08/20 00:47:46;;;;;;;12.98;7.13;;;;;;;24.08;62.16;100016.84;4998041;28;20049;-72
2022/08/20 00:50:21;;;;;;;8.95;6.35;;;;;;;23.62;63.52;99995.53;4984906;28;20455;-72
2022/08/20 00:52:49;;;;;;;15.75;6.72;;;;;;;24.31;63.97;100106.59;4984965;28;20073;-72
2022/08/20 00:55:17;;;;;;;9.73;7.03;;;;;;;23.91;63.64;100033.97;5006228;28;20045;-72
2022/08/20 00:57:47;;;;;;;11.18;5.97;;;;;;;24.33;63.29;100102.84;5005359;28;20117;-72
2022/08/20 01:00:18;;;;;;;9.98;5.97;;;;;;;24.35;63.46;100097.38;5003383;28;20038;-72
2022/08/20 01:02:46;;;;;;;10.98;6.93;;;;;;;24.46;63.51;100097.56;4983601;28;20042;-73
2022/08/20 01:05:13;;;;;;;12.20;7.07;;;;;;;24.50;63.34;100096.44;5002010;28;20048;-72
2022/08/20 01:07:40;;;;;;;9.35;6.22;;;;;;;23.72;63.35;99960.06;4983969;28;20904;-73
2022/08/20 01:10:16;;;;;;;13.02;7.88;;;;;;;24.64;62.92;100107.16;5001370;28;20133;-73
2022/08/20 01:12:45;;;;;;;14.68;7.70;;;;;;;23.87;63.33;100001.13;5001257;28;20061;-72
2022/08/20 01:15:15;;;;;;;9.88;7.05;;;;;;;23.96;63.43;100003.25;5003702;28;20038;-73
2022/08/20 01:17:46;;;;;;;13.20;7.30;;;;;;;24.18;64.07;100056.38;4985469;28;20029;-72
2022/08/20 01:20:18;;;;;;;12.63;6.78;;;;;;;23.69;64.68;99986.16;4984063;28;20053;-72
2022/08/20 01:26:03;;;;;;;11.07;7.40;;;;;;;23.90;65.27;100040.28;4991215;28;20441;-71
2022/08/20 01:28:42;;;;;;;14.52;7.40;;;;;;;24.17;64.90;100085.97;4998968;28;20097;-73
2022/08/20 01:31:14;;;;;;;10.98;6.40;;;;;;;23.53;64.51;99983.53;4982966;28;20283;-73
2022/08/20 01:33:42;;;;;;;12.35;6.45;;;;;;;23.75;65.45;100067.06;4998269;28;20054;-73
2022/08/20 01:36:09;;;;;;;13.70;7.03;;;;;;;23.24;65.02;99959.41;4982024;28;20073;-73
2022/08/20 01:38:36;;;;;;;14.80;6.70;;;;;;;23.23;65.46;99967.53;5003398;28;20470;-72
2022/08/20 01:41:29;;;;;;;11.50;7.50;;;;;;;23.11;65.05;99951.25;4971146;28;20154;-73
2022/08/20 01:43:56;;;;;;;15.90;7.03;;;;;;;23.79;66.04;100081.16;4984502;28;20050;-72
2022/08/20 01:46:25;;;;;;;11.55;6.20;;;;;;;23.83;66.18;100077.31;4984717;28;20154;-71
2022/08/20 01:48:53;;;;;;;14.65;7.35;;;;;;;23.27;65.82;99961.03;4982292;28;20536;-71
2022/08/20 01:51:25;;;;;;;12.80;7.75;;;;;;;23.30;65.36;99952.84;4933547;28;20030;-70
2022/08/20 01:53:52;;;;;;;25.03;6.90;;;;;;;23.68;65.71;100019.28;4986338;28;20049;-72
2022/08/20 01:56:23;;;;;;;19.98;7.57;;;;;;;23.72;65.58;100026.19;4968445;28;20054;-72
2022/08/20 01:58:53;;;;;;;19.58;7.82;;;;;;;23.18;66.03;99973.16;4985736;28;20046;-70
2022/08/20 02:01:34;;;;;;;17.98;7.15;;;;;;;23.23;66.16;99963.03;4983672;28;20061;-72
2022/08/20 02:04:01;;;;;;;10.65;6.90;;;;;;;23.79;66.17;100070.44;4984806;28;20054;-72
2022/08/20 02:06:30;;;;;;;15.63;7.53;;;;;;;23.35;65.80;99977.50;4973776;28;20067;-73
2022/08/20 02:08:59;;;;;;;13.23;7.20;;;;;;;23.83;66.16;100057.69;4983006;28;20402;-73
2022/08/20 02:11:28;;;;;;;11.32;7.47;;;;;;;23.30;66.07;99977.78;4964542;28;20528;-75
2022/08/20 02:13:54;;;;;;;9.68;7.53;;;;;;;23.35;66.44;99970.31;4984720;28;20046;-72
2022/08/20 02:16:32;;;;;;;15.05;7.90;;;;;;;23.81;66.24;100044.38;4966077;28;20050;-73
2022/08/20 02:19:08;;;;;;;17.00;7.10;;;;;;;23.78;66.42;100026.66;4966477;28;20364;-72
2022/08/20 02:21:37;;;;;;;12.93;7.35;;;;;;;23.33;67.80;99988.28;4966918;28;20058;-72
2022/08/20 02:24:03;;;;;;;11.40;6.30;;;;;;;23.31;67.36;99970.59;4967653;28;20042;-72
2022/08/20 02:26:31;;;;;;;13.38;8.20;;;;;;;23.11;68.22;99961.09;4966035;28;20046;-72
2022/08/20 02:28:58;;;;;;;22.05;7.13;;;;;;;23.04;68.51;99957.03;4983773;28;20485;-73
2022/08/20 02:31:24;;;;;;;15.45;7.93;;;;;;;23.75;68.17;100029.56;4982953;28;20042;-72
2022/08/20 02:33:51;;;;;;;13.32;8.23;;;;;;;23.74;68.50;100053.75;4981613;28;20054;-72
2022/08/20 02:36:17;;;;;;;15.15;7.72;;;;;;;23.79;67.99;100046.31;4981627;28;20026;-71
2022/08/20 02:38:45;;;;;;;14.75;7.93;;;;;;;23.35;68.12;99990.91;4981874;28;20045;-72
2022/08/20 02:41:11;;;;;;;13.35;8.45;;;;;;;23.36;68.46;99997.97;4987980;28;20060;-72
2022/08/20 02:43:38;;;;;;;15.38;7.32;;;;;;;23.62;67.86;100020.50;4984251;28;20049;-72
2022/08/20 02:46:06;;;;;;;18.13;7.18;;;;;;;23.08;67.88;99926.47;4983276;28;20124;-72
2022/08/20 02:48:32;;;;;;;11.60;7.30;;;;;;;22.99;67.98;99937.72;4993013;28;20065;-72
2022/08/20 02:51:04;;;;;;;11.70;7.25;;;;;;;23.58;68.57;100043.94;5015349;28;20125;-73
2022/08/20 02:53:33;;;;;;;19.20;8.05;;;;;;;23.16;68.17;99957.19;4994424;28;20061;-72
2022/08/20 02:55:59;;;;;;;10.82;8.13;;;;;;;23.53;68.15;100019.25;4975240;28;20101;-72
2022/08/20 02:58:26;;;;;;;11.50;7.30;;;;;;;23.65;68.53;100060.50;4982823;28;20054;-72
2022/08/20 03:00:52;;;;;;;14.85;6.78;;;;;;;23.12;68.53;99963.66;5000078;28;20069;-72
2022/08/20 03:03:21;;;;;;;11.25;7.95;;;;;;;23.94;68.14;100063.25;5000338;28;20898;-72
2022/08/20 03:05:48;;;;;;;17.20;7.95;;;;;;;23.72;69.40;100063.69;4988235;28;20585;-72
2022/08/20 03:08:15;;;;;;;14.93;8.25;;;;;;;23.01;69.30;99957.22;5002567;28;20058;-72
2022/08/20 03:10:43;;;;;;;10.85;7.57;;;;;;;23.07;69.55;99951.53;5002745;28;20041;-73
2022/08/20 03:13:17;;;;;;;14.77;7.28;;;;;;;23.54;70.23;100039.72;4987249;28;20529;-73
2022/08/20 03:15:50;;;;;;;22.10;8.07;;;;;;;22.99;69.71;99959.13;4986858;28;20045;-72
2022/08/20 03:18:18;;;;;;;14.32;8.43;;;;;;;23.75;69.20;100067.06;5004890;28;20462;-71
2022/08/20 03:20:45;;;;;;;16.98;8.45;;;;;;;22.93;71.48;99963.00;4987994;28;20465;-72
2022/08/20 03:23:10;;;;;;;11.23;6.97;;;;;;;23.53;73.72;100078.19;5004291;28;20042;-72
2022/08/20 03:25:36;;;;;;;11.43;7.15;;;;;;;23.05;74.02;100006.94;5021703;28;20119;-72
2022/08/20 03:28:03;;;;;;;12.35;7.43;;;;;;;22.79;74.12;99984.34;4989139;28;20128;-71
2022/08/20 03:30:30;;;;;;;15.80;6.97;;;;;;;22.79;74.02;99987.88;5009000;28;20093;-71
2022/08/20 03:32:56;;;;;;;29.15;9.10;;;;;;;23.43;72.43;100095.72;5006362;28;20072;-71
2022/08/20 03:35:24;;;;;;;12.30;8.02;;;;;;;23.34;74.00;100099.81;4987883;28;20140;-72
2022/08/20 03:37:50;;;;;;;15.45;8.38;;;;;;;23.36;73.25;100105.91;5005365;28;20088;-72
2022/08/20 03:40:23;;;;;;;15.88;7.97;;;;;;;22.92;70.22;99998.72;4999070;28;20060;-72
2022/08/20 03:42:51;;;;;;;13.23;6.32;;;;;;;22.88;69.83;99991.84;4969439;28;20609;-72
2022/08/20 03:45:18;;;;;;;12.35;6.93;;;;;;;23.51;70.11;100100.66;4989306;28;20038;-72
2022/08/20 03:47:44;;;;;;;9.68;7.55;;;;;;;23.46;69.95;100103.59;4990566;28;20044;-73
2022/08/20 03:50:12;;;;;;;9.88;7.65;;;;;;;23.00;70.56;100044.69;4969272;28;20178;-72
2022/08/20 03:52:38;;;;;;;19.27;7.90;;;;;;;23.26;71.03;100098.53;4987966;28;20050;-71
2022/08/20 03:55:06;;;;;;;11.02;7.00;;;;;;;23.26;70.72;100088.69;4982667;28;20077;-71
2022/08/20 03:57:31;;;;;;;11.20;7.25;;;;;;;23.30;71.18;100094.72;4990736;28;20105;-71
2022/08/20 03:59:57;;;;;;;14.85;8.90;;;;;;;22.38;71.74;99961.66;4961718;28;20038;-71
2022/08/20 04:02:23;;;;;;;12.05;6.93;;;;;;;23.26;71.62;100096.72;4980245;28;20760;-72
2022/08/20 04:04:50;;;;;;;10.30;6.43;;;;;;;23.04;73.26;100086.38;4975731;28;20053;-72
2022/08/20 04:07:24;;;;;;;10.65;7.75;;;;;;;22.62;73.90;100031.66;4990320;28;20050;-72
2022/08/20 04:09:51;;;;;;;10.80;7.60;;;;;;;23.12;73.07;100088.63;4989406;28;20764;-72
2022/08/20 04:12:17;;;;;;;12.55;8.30;;;;;;;22.38;72.97;99985.72;4990172;28;20030;-74
2022/08/20 04:14:43;;;;;;;11.90;7.45;;;;;;;22.65;73.37;100019.91;4993248;28;20098;-72
2022/08/20 04:17:18;;;;;;;12.20;8.20;;;;;;;23.10;72.67;100088.69;4973960;28;20128;-74
2022/08/20 04:19:44;;;;;;;10.77;8.88;;;;;;;22.38;73.52;99982.19;4992883;28;21150;-72
2022/08/20 04:22:12;;;;;;;20.50;8.75;;;;;;;23.11;73.26;100086.91;4987785;28;20053;-73
2022/08/20 04:24:39;;;;;;;15.60;8.45;;;;;;;21.83;73.58;99916.59;4984691;28;20046;-72
2022/08/20 04:27:07;;;;;;;19.65;9.02;;;;;;;22.45;73.72;100012.97;4989652;28;20037;-72
2022/08/20 04:29:35;;;;;;;15.43;8.80;;;;;;;22.00;73.17;99935.22;4975637;28;20034;-73
2022/08/20 04:32:02;;;;;;;13.13;7.43;;;;;;;23.18;72.65;100096.31;4992758;28;20077;-72
2022/08/20 04:34:30;;;;;;;11.68;8.10;;;;;;;22.40;73.64;99999.88;4989400;28;20050;-73
2022/08/20 04:36:56;;;;;;;10.10;8.50;;;;;;;22.94;73.76;100079.78;4988076;28;20057;-72
2022/08/20 04:39:23;;;;;;;10.07;8.30;;;;;;;23.13;73.33;100098.34;4997886;28;20118;-73
2022/08/20 04:41:49;;;;;;;13.85;8.55;;;;;;;23.27;73.30;100101.13;4983257;28;20049;-72
2022/08/20 04:44:14;;;;;;;12.13;8.65;;;;;;;23.26;73.27;100104.75;4985093;28;20520;-72
2022/08/20 04:46:41;;;;;;;9.50;8.23;;;;;;;22.76;73.05;100009.47;4984507;28;20054;-72
2022/08/20 04:49:08;;;;;;;16.23;8.15;;;;;;;22.71;73.10;100017.75;4986665;28;20047;-72
2022/08/20 04:51:34;;;;;;;12.77;8.57;;;;;;;22.73;72.37;99988.22;4986581;28;20054;-72
2022/08/20 04:54:02;;;;;;;16.17;8.93;;;;;;;23.42;71.78;100119.94;4985550;28;20605;-73
2022/08/20 04:56:30;;;;;;;15.68;8.40;;;;;;;22.99;72.29;100050.13;4984784;28;20124;-73
2022/08/20 04:58:59;;;;;;;14.25;9.55;;;;;;;23.58;71.70;100118.09;4975891;28;20171;-73
2022/08/20 05:01:26;;;;;;;25.40;8.90;;;;;;;23.77;70.65;100126.78;4980017;28;20042;-73
2022/08/20 05:03:55;;;;;;;16.25;8.63;;;;;;;23.14;70.36;99993.88;4987776;28;20050;-72
2022/08/20 05:06:24;;;;;;;27.10;8.80;;;;;;;23.94;71.12;100117.72;4985882;28;20036;-72
2022/08/20 05:08:50;;;;;;;10.80;8.63;;;;;;;24.10;70.06;100116.81;4962493;28;20030;-71
2022/08/20 05:11:16;;;;;;;16.10;9.30;;;;;;;24.09;69.60;100105.22;4986426;28;20097;-71
2022/08/20 05:13:41;;;;;;;19.60;8.05;;;;;;;24.14;69.65;100112.97;4970083;28;20050;-71
2022/08/20 05:16:08;;;;;;;13.00;9.07;;;;;;;24.22;69.26;100124.09;4986778;28;20049;-71
2022/08/20 05:18:35;;;;;;;12.80;7.75;;;;;;;24.13;69.61;100111.25;4986840;28;20056;-71
2022/08/20 05:21:05;;;;;;;18.73;7.65;;;;;;;23.75;67.43;100002.75;4987385;28;20137;-72
2022/08/20 05:23:33;;;;;;;19.45;8.55;;;;;;;24.65;66.78;100110.72;4987278;28;20078;-72
2022/08/20 05:26:00;;;;;;;15.48;7.65;;;;;;;24.23;65.62;100062.34;4966581;28;20046;-73
2022/08/20 05:28:31;;;;;;;13.30;7.43;;;;;;;24.95;65.83;100125.81;4964964;28;20129;-72
2022/08/20 05:31:00;;;;;;;13.67;8.10;;;;;;;25.14;64.90;100120.13;4964084;28;20097;-72
2022/08/20 05:33:28;;;;;;;17.10;7.45;;;;;;;24.96;62.42;100025.50;4983899;28;20493;-74
2022/08/20 05:35:57;;;;;;;13.15;6.47;;;;;;;25.28;60.69;100008.16;4979178;28;20142;-71
2022/08/20 05:38:28;;;;;;;14.48;6.75;;;;;;;26.16;58.70;100098.06;4962946;28;20758;-73
2022/08/20 05:40:54;;;;;;;20.23;7.30;;;;;;;26.05;58.18;100032.44;4986246;28;20075;-72
2022/08/20 05:43:20;;;;;;;15.85;7.15;;;;;;;26.11;57.65;100018.56;4968321;28;20042;-73
2022/08/20 05:45:51;;;;;;;25.63;6.55;;;;;;;26.90;56.77;100113.41;4992101;28;20141;-72
2022/08/20 05:48:20;;;;;;;9.43;6.88;;;;;;;26.67;56.38;100039.69;4966357;28;20038;-72
2022/08/20 05:50:50;;;;;;;11.85;6.88;;;;;;;27.65;55.08;100124.94;4987424;28;20034;-71
2022/08/20 05:53:17;;;;;;;12.20;6.20;;;;;;;27.95;54.92;100119.94;4987793;28;20070;-72
2022/08/20 05:55:44;;;;;;;16.45;6.35;;;;;;;27.96;55.30;100107.31;4983873;28;20100;-73
2022/08/20 05:58:20;;;;;;;11.57;5.05;;;;;;;28.16;53.98;100128.19;4985666;28;20475;-72
2022/08/20 06:00:46;;;;;;;7.63;6.38;;;;;;;27.85;53.79;100023.69;4987049;28;20104;-73
2022/08/20 06:05:56;;;;;;;24.65;6.63;;;;;;;28.58;52.40;100131.22;4984575;28;20105;-71
2022/08/20 06:08:22;;;;;;;13.98;5.43;;;;;;;27.96;52.79;100128.91;4985727;28;20058;-72
2022/08/20 06:10:48;;;;;;;11.27;6.32;;;;;;;27.56;53.38;100048.38;4979442;28;20054;-72
2022/08/20 06:13:14;;;;;;;18.88;6.13;;;;;;;28.53;53.14;100132.56;4971586;28;20045;-73
2022/08/20 06:15:39;;;;;;;18.33;6.97;;;;;;;28.64;51.54;100112.81;4989573;28;20122;-73
2022/08/20 06:18:07;;;;;;;17.60;6.85;;;;;;;28.80;52.70;100143.00;4988620;28;20038;-74
2022/08/20 06:20:35;;;;;;;18.70;5.82;;;;;;;28.77;51.59;100121.63;4983285;28;20210;-72
2022/08/20 06:23:00;;;;;;;15.20;6.30;;;;;;;28.86;53.10;100120.88;4967683;28;20050;-72
2022/08/20 06:25:28;;;;;;;14.18;6.50;;;;;;;28.38;52.59;100014.03;4985917;28;20048;-72
2022/08/20 06:28:02;;;;;;;11.60;5.20;;;;;;;28.99;51.67;100132.44;4989112;28;20050;-71
2022/08/20 06:30:28;;;;;;;23.10;6.32;;;;;;;29.12;51.91;100129.59;4986640;28;20061;-74
2022/08/20 06:32:53;;;;;;;14.25;6.00;;;;;;;28.74;52.10;100074.13;4973689;28;20034;-73
2022/08/20 06:35:19;;;;;;;16.30;6.35;;;;;;;28.91;51.60;100124.06;4982951;28;20057;-72
2022/08/20 06:37:45;;;;;;;16.40;6.00;;;;;;;29.09;51.07;100127.16;4986473;28;20133;-73
2022/08/20 06:40:33;;;;;;;23.20;6.22;;;;;;;28.24;52.28;100022.38;4986416;28;20461;-73
2022/08/20 06:42:59;;;;;;;22.88;7.30;;;;;;;28.80;50.65;100089.00;4997116;28;20084;-73
2022/08/20 06:45:28;;;;;;;10.48;6.32;;;;;;;28.42;51.59;100014.63;4997550;28;20034;-73
2022/08/20 06:47:58;;;;;;;13.75;5.20;;;;;;;28.83;51.75;100075.22;4996184;28;20030;-73
2022/08/20 06:50:30;;;;;;;16.90;5.25;;;;;;;28.37;52.17;100025.78;4997663;28;20498;-73
2022/08/20 06:52:57;;;;;;;12.63;5.32;;;;;;;28.47;52.02;100027.78;5000880;28;20525;-72
2022/08/20 06:55:23;;;;;;;12.60;6.07;;;;;;;28.55;51.17;100084.72;4999391;28;20046;-74
2022/08/20 06:57:58;;;;;;;17.35;5.75;;;;;;;28.38;52.00;100030.22;4997203;28;20161;-73
2022/08/20 07:00:24;;;;;;;17.00;7.15;;;;;;;28.29;52.12;100012.06;5013419;28;20246;-72
2022/08/20 07:02:51;;;;;;;14.15;6.90;;;;;;;28.46;52.58;100040.41;4978297;28;20042;-72
2022/08/20 07:05:16;;;;;;;18.90;6.78;;;;;;;28.81;53.03;100106.91;4998828;28;20114;-72
2022/08/20 07:07:48;;;;;;;9.43;5.10;;;;;;;28.27;51.86;100051.81;4980428;28;22972;-73
2022/08/20 07:10:15;;;;;;;14.75;6.13;;;;;;;28.54;52.05;100061.38;4997626;28;20056;-72
2022/08/20 07:12:41;;;;;;;13.02;5.25;;;;;;;28.29;51.96;100014.75;4999220;28;20129;-72
2022/08/20 07:15:10;;;;;;;9.30;5.55;;;;;;;28.49;51.62;100039.31;4999995;28;20101;-73
2022/08/20 07:17:36;;;;;;;9.23;5.75;;;;;;;28.54;51.28;100031.69;5014078;28;20733;-75
2022/08/20 07:20:05;;;;;;;14.02;6.03;;;;;;;28.44;51.57;100019.91;4982577;28;20037;-72
2022/08/20 07:22:34;;;;;;;12.95;6.30;;;;;;;28.58;50.77;100079.91;4981499;28;20049;-72
2022/08/20 07:25:01;;;;;;;11.68;5.88;;;;;;;28.50;50.24;100055.38;4990439;28;20052;-73
2022/08/20 07:27:27;;;;;;;9.60;5.47;;;;;;;28.34;52.19;100031.44;4989085;28;20042;-73
2022/08/20 07:32:38;;;;;;;17.77;6.10;;;;;;;28.96;50.88;100102.97;4995269;28;20065;-72
2022/08/20 07:35:10;;;;;;;10.70;5.43;;;;;;;28.59;50.99;100062.75;4998079;28;20057;-73
2022/08/20 07:37:38;;;;;;;15.77;6.68;;;;;;;28.95;51.29;100113.88;4999318;28;20062;-74
2022/08/20 07:40:06;;;;;;;18.88;6.35;;;;;;;28.21;49.49;100011.81;4981993;28;20058;-74
2022/08/20 07:42:33;;;;;;;10.15;5.68;;;;;;;28.77;50.28;100114.38;4970744;28;20053;-73
2022/08/20 07:44:58;;;;;;;13.98;6.35;;;;;;;28.74;50.43;100098.44;4979825;28;20046;-75
2022/08/20 07:47:24;;;;;;;12.45;5.22;;;;;;;29.21;50.70;100103.66;4981837;28;20046;-73
2022/08/20 07:49:50;;;;;;;11.50;6.38;;;;;;;28.92;49.45;100101.50;4937737;28;20050;-72
2022/08/20 07:52:15;;;;;;;10.45;6.05;;;;;;;29.17;50.29;100099.47;4983188;28;20580;-72
2022/08/20 07:54:43;;;;;;;17.42;6.45;;;;;;;29.02;49.09;100104.28;4964835;28;20987;-73
2022/08/20 07:57:10;;;;;;;9.45;4.43;;;;;;;28.65;49.16;100015.47;4982895;28;20053;-72
2022/08/20 07:59:37;;;;;;;14.00;5.95;;;;;;;29.04;48.74;100084.25;4985633;28;20082;-73
2022/08/20 08:02:06;;;;;;;17.15;5.22;;;;;;;28.73;48.62;100001.34;4982494;28;20056;-73
2022/08/20 08:04:31;;;;;;;7.70;5.38;;;;;;;29.13;49.16;100012.44;4955715;28;20105;-74
2022/08/20 08:06:59;;;;;;;17.23;5.85;;;;;;;29.06;48.68;100030.09;5002656;28;20553;-73
2022/08/20 08:09:26;;;;;;;10.95;6.07;;;;;;;28.76;49.38;99979.50;4991700;28;20052;-73
2022/08/20 08:11:56;;;;;;;11.32;6.57;;;;;;;29.54;49.74;100088.28;4971869;28;20073;-73
